sensor_id;sensor_type;location;lat;lon;timestamp;pressure;altitude;pressure_sealevel;temperature;humidity
43804;BME280;29430;52.924;-2.388;2023-03-05T00:01:33;100246.16;;;3.55;68.52
43804;BME280;29430;52.924;-2.388;2023-03-05T00:06:27;100244.97;;;3.49;68.34
43804;BME280;29430;52.924;-2.388;2023-03-05T00:11:19;100243.97;;;3.50;68.85
43804;BME280;29430;52.924;-2.388;2023-03-05T00:16:13;100232.72;;;3.47;68.86
43804;BME280;29430;52.924;-2.388;2023-03-05T00:21:17;100223.84;;;3.46;68.80
43804;BME280;29430;52.924;-2.388;2023-03-05T00:26:08;100216.13;;;3.43;69.05
43804;BME280;29430;52.924;-2.388;2023-03-05T00:31:00;100214.44;;;3.42;69.24
43804;BME280;29430;52.924;-2.388;2023-03-05T00:35:52;100203.72;;;3.42;69.12
43804;BME280;29430;52.924;-2.388;2023-03-05T00:40:44;100192.97;;;3.42;69.56
43804;BME280;29430;52.924;-2.388;2023-03-05T00:45:36;100203.53;;;3.44;69.32
43804;BME280;29430;52.924;-2.388;2023-03-05T00:50:27;100205.41;;;3.43;69.55
43804;BME280;29430;52.924;-2.388;2023-03-05T00:55:20;100199.16;;;3.43;70.06
43804;BME280;29430;52.924;-2.388;2023-03-05T01:00:13;100194.84;;;3.42;70.44
43804;BME280;29430;52.924;-2.388;2023-03-05T01:05:05;100191.13;;;3.43;70.33
43804;BME280;29430;52.924;-2.388;2023-03-05T01:09:57;100194.34;;;3.46;70.65
43804;BME280;29430;52.924;-2.388;2023-03-05T01:14:49;100186.97;;;3.48;70.23
43804;BME280;29430;52.924;-2.388;2023-03-05T01:19:42;100183.47;;;3.48;70.70
43804;BME280;29430;52.924;-2.388;2023-03-05T01:24:34;100168.88;;;3.50;70.63
43804;BME280;29430;52.924;-2.388;2023-03-05T01:29:25;100167.22;;;3.49;70.84
43804;BME280;29430;52.924;-2.388;2023-03-05T01:34:18;100164.38;;;3.51;71.07
43804;BME280;29430;52.924;-2.388;2023-03-05T01:39:11;100150.97;;;3.51;70.94
43804;BME280;29430;52.924;-2.388;2023-03-05T01:44:04;100144.91;;;3.49;71.03
43804;BME280;29430;52.924;-2.388;2023-03-05T01:49:09;100134.34;;;3.47;71.18
43804;BME280;29430;52.924;-2.388;2023-03-05T01:54:04;100132.34;;;3.49;71.37
43804;BME280;29430;52.924;-2.388;2023-03-05T01:58:58;100130.81;;;3.47;70.99
43804;BME280;29430;52.924;-2.388;2023-03-05T02:03:54;100121.47;;;3.51;71.41
43804;BME280;29430;52.924;-2.388;2023-03-05T02:08:45;100121.13;;;3.54;71.23
43804;BME280;29430;52.924;-2.388;2023-03-05T02:13:37;100110.75;;;3.51;71.26
43804;BME280;29430;52.924;-2.388;2023-03-05T02:18:31;100106.19;;;3.51;71.20
43804;BME280;29430;52.924;-2.388;2023-03-05T02:23:26;100109.88;;;3.50;71.85
43804;BME280;29430;52.924;-2.388;2023-03-05T02:28:29;100100.69;;;3.53;71.83
43804;BME280;29430;52.924;-2.388;2023-03-05T02:33:22;100097.00;;;3.54;71.71
43804;BME280;29430;52.924;-2.388;2023-03-05T02:38:16;100102.53;;;3.52;71.80
43804;BME280;29430;52.924;-2.388;2023-03-05T02:43:09;100085.06;;;3.48;71.63
43804;BME280;29430;52.924;-2.388;2023-03-05T02:48:01;100083.88;;;3.43;71.82
43804;BME280;29430;52.924;-2.388;2023-03-05T02:52:53;100069.47;;;3.35;71.99
43804;BME280;29430;52.924;-2.388;2023-03-05T02:57:44;100066.63;;;3.37;72.05
43804;BME280;29430;52.924;-2.388;2023-03-05T03:02:36;100056.41;;;3.40;71.31
43804;BME280;29430;52.924;-2.388;2023-03-05T03:07:28;100045.69;;;3.49;70.52
43804;BME280;29430;52.924;-2.388;2023-03-05T03:12:20;100039.81;;;3.53;68.52
43804;BME280;29430;52.924;-2.388;2023-03-05T03:17:14;100030.63;;;3.56;69.61
43804;BME280;29430;52.924;-2.388;2023-03-05T03:22:07;100025.09;;;3.57;70.49
43804;BME280;29430;52.924;-2.388;2023-03-05T03:27:00;100008.34;;;3.55;71.19
43804;BME280;29430;52.924;-2.388;2023-03-05T03:31:52;100021.22;;;3.52;71.54
43804;BME280;29430;52.924;-2.388;2023-03-05T03:36:45;100017.72;;;3.51;72.16
43804;BME280;29430;52.924;-2.388;2023-03-05T03:41:40;100002.28;;;3.53;72.53
43804;BME280;29430;52.924;-2.388;2023-03-05T03:46:32;99996.09;;;3.53;72.80
43804;BME280;29430;52.924;-2.388;2023-03-05T03:51:24;99992.91;;;3.57;72.83
43804;BME280;29430;52.924;-2.388;2023-03-05T03:56:16;99997.13;;;3.60;73.18
43804;BME280;29430;52.924;-2.388;2023-03-05T04:01:07;99981.03;;;3.60;73.22
43804;BME280;29430;52.924;-2.388;2023-03-05T04:05:59;99981.19;;;3.58;73.23
43804;BME280;29430;52.924;-2.388;2023-03-05T04:10:51;99970.47;;;3.58;73.63
43804;BME280;29430;52.924;-2.388;2023-03-05T04:15:43;99960.91;;;3.56;73.72
43804;BME280;29430;52.924;-2.388;2023-03-05T04:20:34;99964.41;;;3.48;74.30
43804;BME280;29430;52.924;-2.388;2023-03-05T04:25:26;99951.66;;;3.42;75.01
43804;BME280;29430;52.924;-2.388;2023-03-05T04:30:18;99928.53;;;3.41;75.14
43804;BME280;29430;52.924;-2.388;2023-03-05T04:35:10;99927.19;;;3.37;75.75
43804;BME280;29430;52.924;-2.388;2023-03-05T04:40:02;99912.44;;;3.33;76.12
43804;BME280;29430;52.924;-2.388;2023-03-05T04:44:53;99910.75;;;3.32;76.74
43804;BME280;29430;52.924;-2.388;2023-03-05T04:49:45;99905.75;;;3.37;76.79
43804;BME280;29430;52.924;-2.388;2023-03-05T04:54:37;99907.41;;;3.38;76.43
43804;BME280;29430;52.924;-2.388;2023-03-05T04:59:29;99893.84;;;3.39;76.59
43804;BME280;29430;52.924;-2.388;2023-03-05T05:04:21;99892.19;;;3.38;76.89
43804;BME280;29430;52.924;-2.388;2023-03-05T05:09:12;99879.94;;;3.36;76.72
43804;BME280;29430;52.924;-2.388;2023-03-05T05:14:04;99873.91;;;3.34;77.04
43804;BME280;29430;52.924;-2.388;2023-03-05T05:18:56;99863.69;;;3.29;77.50
43804;BME280;29430;52.924;-2.388;2023-03-05T05:23:48;99856.81;;;3.27;77.95
43804;BME280;29430;52.924;-2.388;2023-03-05T05:28:41;99855.47;;;3.22;78.56
43804;BME280;29430;52.924;-2.388;2023-03-05T05:33:34;99854.47;;;3.23;79.02
43804;BME280;29430;52.924;-2.388;2023-03-05T05:38:25;99852.78;;;3.22;79.00
43804;BME280;29430;52.924;-2.388;2023-03-05T05:43:17;99852.59;;;3.24;79.18
43804;BME280;29430;52.924;-2.388;2023-03-05T05:48:09;99839.38;;;3.22;79.40
43804;BME280;29430;52.924;-2.388;2023-03-05T05:53:00;99852.13;;;3.20;80.12
43804;BME280;29430;52.924;-2.388;2023-03-05T05:57:52;99845.75;;;3.21;79.83
43804;BME280;29430;52.924;-2.388;2023-03-05T06:02:43;99842.38;;;3.19;80.16
43804;BME280;29430;52.924;-2.388;2023-03-05T06:07:35;99839.53;;;3.21;80.95
43804;BME280;29430;52.924;-2.388;2023-03-05T06:12:27;99816.25;;;3.13;81.17
43804;BME280;29430;52.924;-2.388;2023-03-05T06:17:19;99815.94;;;3.08;81.67
43804;BME280;29430;52.924;-2.388;2023-03-05T06:22:20;99825.47;;;3.11;82.01
43804;BME280;29430;52.924;-2.388;2023-03-05T06:27:12;99806.38;;;3.14;81.88
43804;BME280;29430;52.924;-2.388;2023-03-05T06:32:04;99800.00;;;3.15;81.78
43804;BME280;29430;52.924;-2.388;2023-03-05T06:36:55;99798.53;;;3.12;82.32
43804;BME280;29430;52.924;-2.388;2023-03-05T06:41:49;99793.47;;;3.17;82.16
43804;BME280;29430;52.924;-2.388;2023-03-05T06:46:42;99793.81;;;3.14;82.60
43804;BME280;29430;52.924;-2.388;2023-03-05T06:51:35;99799.19;;;3.14;82.96
43804;BME280;29430;52.924;-2.388;2023-03-05T06:56:28;99774.22;;;3.14;82.64
43804;BME280;29430;52.924;-2.388;2023-03-05T07:01:20;99785.13;;;3.12;82.48
43804;BME280;29430;52.924;-2.388;2023-03-05T07:06:13;99782.09;;;3.07;82.90
43804;BME280;29430;52.924;-2.388;2023-03-05T07:11:17;99773.56;;;3.03;83.02
43804;BME280;29430;52.924;-2.388;2023-03-05T07:16:13;99778.09;;;3.03;83.36
43804;BME280;29430;52.924;-2.388;2023-03-05T07:21:06;99773.72;;;3.02;83.10
43804;BME280;29430;52.924;-2.388;2023-03-05T07:26:02;99765.69;;;3.02;83.63
43804;BME280;29430;52.924;-2.388;2023-03-05T07:31:05;99770.72;;;2.97;83.83
43804;BME280;29430;52.924;-2.388;2023-03-05T07:35:58;99758.97;;;2.98;84.17
43804;BME280;29430;52.924;-2.388;2023-03-05T07:40:51;99755.47;;;2.97;84.22
43804;BME280;29430;52.924;-2.388;2023-03-05T07:45:44;99746.94;;;2.94;84.35
43804;BME280;29430;52.924;-2.388;2023-03-05T07:50:36;99737.56;;;2.90;84.74
43804;BME280;29430;52.924;-2.388;2023-03-05T07:55:28;99733.19;;;2.89;85.14
43804;BME280;29430;52.924;-2.388;2023-03-05T08:00:20;99724.16;;;2.90;85.54
43804;BME280;29430;52.924;-2.388;2023-03-05T08:05:11;99721.31;;;2.91;85.66
43804;BME280;29430;52.924;-2.388;2023-03-05T08:10:04;99726.34;;;2.94;86.37
43804;BME280;29430;52.924;-2.388;2023-03-05T08:14:56;99704.06;;;2.94;86.61
43804;BME280;29430;52.924;-2.388;2023-03-05T08:19:47;99713.94;;;2.93;87.08
43804;BME280;29430;52.924;-2.388;2023-03-05T08:24:39;99723.16;;;2.91;87.06
43804;BME280;29430;52.924;-2.388;2023-03-05T08:29:31;99709.09;;;2.97;87.40
43804;BME280;29430;52.924;-2.388;2023-03-05T08:34:22;99692.19;;;3.04;87.53
43804;BME280;29430;52.924;-2.388;2023-03-05T08:39:15;99692.97;;;3.13;87.07
43804;BME280;29430;52.924;-2.388;2023-03-05T08:44:07;99685.94;;;3.20;87.03
43804;BME280;29430;52.924;-2.388;2023-03-05T08:48:59;99680.56;;;3.29;86.46
43804;BME280;29430;52.924;-2.388;2023-03-05T08:53:52;99674.19;;;3.30;85.98
43804;BME280;29430;52.924;-2.388;2023-03-05T08:58:44;99657.59;;;3.34;85.93
43804;BME280;29430;52.924;-2.388;2023-03-05T09:03:37;99655.41;;;3.38;85.79
43804;BME280;29430;52.924;-2.388;2023-03-05T09:08:29;99647.69;;;3.43;85.95
43804;BME280;29430;52.924;-2.388;2023-03-05T09:13:20;99650.97;;;3.53;85.39
43804;BME280;29430;52.924;-2.388;2023-03-05T09:18:12;99652.16;;;3.59;83.46
43804;BME280;29430;52.924;-2.388;2023-03-05T09:23:04;99640.25;;;3.62;83.48
43804;BME280;29430;52.924;-2.388;2023-03-05T09:27:56;99638.22;;;3.64;83.20
43804;BME280;29430;52.924;-2.388;2023-03-05T09:32:47;99640.38;;;3.68;83.71
43804;BME280;29430;52.924;-2.388;2023-03-05T09:37:39;99634.94;;;3.76;83.51
43804;BME280;29430;52.924;-2.388;2023-03-05T09:47:44;99614.91;;;3.96;83.33
43804;BME280;29430;52.924;-2.388;2023-03-05T09:52:49;99601.31;;;4.20;83.28
43804;BME280;29430;52.924;-2.388;2023-03-05T09:57:48;99595.25;;;4.79;83.68
43804;BME280;29430;52.924;-2.388;2023-03-05T10:02:49;99587.31;;;5.16;79.79
43804;BME280;29430;52.924;-2.388;2023-03-05T10:07:52;99590.72;;;5.25;79.19
43804;BME280;29430;52.924;-2.388;2023-03-05T10:12:52;99583.94;;;5.44;78.08
43804;BME280;29430;52.924;-2.388;2023-03-05T10:23:20;99567.88;;;5.87;78.03
43804;BME280;29430;52.924;-2.388;2023-03-05T10:33:45;99547.59;;;6.27;76.62
43804;BME280;29430;52.924;-2.388;2023-03-05T10:49:34;99537.00;;;6.82;73.81
43804;BME280;29430;52.924;-2.388;2023-03-05T10:54:34;99527.34;;;6.95;73.02
43804;BME280;29430;52.924;-2.388;2023-03-05T10:59:27;99516.00;;;7.06;72.10
43804;BME280;29430;52.924;-2.388;2023-03-05T11:04:28;99502.53;;;7.13;71.48
43804;BME280;29430;52.924;-2.388;2023-03-05T11:09:23;99512.31;;;7.14;70.98
43804;BME280;29430;52.924;-2.388;2023-03-05T11:14:25;99504.63;;;7.17;71.63
43804;BME280;29430;52.924;-2.388;2023-03-05T11:19:28;99497.38;;;7.18;70.88
43804;BME280;29430;52.924;-2.388;2023-03-05T11:24:20;99490.97;;;7.26;70.85
43804;BME280;29430;52.924;-2.388;2023-03-05T11:29:24;99483.75;;;7.33;70.63
43804;BME280;29430;52.924;-2.388;2023-03-05T11:39:26;99457.63;;;7.47;71.24
43804;BME280;29430;52.924;-2.388;2023-03-05T11:44:27;99453.91;;;7.55;69.53
43804;BME280;29430;52.924;-2.388;2023-03-05T11:49:23;99445.63;;;7.56;70.60
43804;BME280;29430;52.924;-2.388;2023-03-05T11:54:21;99438.75;;;7.53;69.38
43804;BME280;29430;52.924;-2.388;2023-03-05T11:59:28;99427.34;;;7.51;69.51
43804;BME280;29430;52.924;-2.388;2023-03-05T12:04:23;99418.63;;;7.49;70.01
43804;BME280;29430;52.924;-2.388;2023-03-05T12:09:40;99423.16;;;7.42;70.78
43804;BME280;29430;52.924;-2.388;2023-03-05T12:20:34;99412.16;;;7.37;71.90
43804;BME280;29430;52.924;-2.388;2023-03-05T12:35:39;99380.84;;;7.49;73.49
43804;BME280;29430;52.924;-2.388;2023-03-05T12:40:33;99376.50;;;7.62;73.34
43804;BME280;29430;52.924;-2.388;2023-03-05T12:45:32;99357.59;;;7.62;71.76
43804;BME280;29430;52.924;-2.388;2023-03-05T12:55:25;99345.31;;;7.66;72.26
43804;BME280;29430;52.924;-2.388;2023-03-05T13:00:32;99343.47;;;7.73;71.69
43804;BME280;29430;52.924;-2.388;2023-03-05T13:05:32;99330.81;;;7.80;72.32
43804;BME280;29430;52.924;-2.388;2023-03-05T13:10:27;99329.13;;;7.86;71.42
43804;BME280;29430;52.924;-2.388;2023-03-05T13:15:21;99325.00;;;7.83;70.75
43804;BME280;29430;52.924;-2.388;2023-03-05T13:20:33;99313.78;;;7.73;71.46
43804;BME280;29430;52.924;-2.388;2023-03-05T13:25:28;99307.53;;;7.79;72.46
43804;BME280;29430;52.924;-2.388;2023-03-05T13:30:22;99295.69;;;7.87;71.71
43804;BME280;29430;52.924;-2.388;2023-03-05T13:35:14;99291.53;;;7.91;71.62
43804;BME280;29430;52.924;-2.388;2023-03-05T13:40:20;99282.56;;;8.04;71.53
43804;BME280;29430;52.924;-2.388;2023-03-05T13:45:23;99274.63;;;8.09;70.27
43804;BME280;29430;52.924;-2.388;2023-03-05T13:50:36;99267.00;;;7.99;70.02
43804;BME280;29430;52.924;-2.388;2023-03-05T13:55:28;99261.84;;;7.91;69.39
43804;BME280;29430;52.924;-2.388;2023-03-05T14:00:33;99261.22;;;7.82;68.77
43804;BME280;29430;52.924;-2.388;2023-03-05T14:05:27;99260.41;;;7.75;68.99
43804;BME280;29430;52.924;-2.388;2023-03-05T14:15:30;99245.03;;;7.69;70.26
43804;BME280;29430;52.924;-2.388;2023-03-05T14:20:28;99245.25;;;7.74;69.69
43804;BME280;29430;52.924;-2.388;2023-03-05T14:25:37;99238.00;;;7.68;71.63
43804;BME280;29430;52.924;-2.388;2023-03-05T14:30:30;99238.22;;;7.53;72.61
43804;BME280;29430;52.924;-2.388;2023-03-05T14:35:24;99233.03;;;7.38;73.50
43804;BME280;29430;52.924;-2.388;2023-03-05T14:40:25;99229.75;;;7.29;74.43
43804;BME280;29430;52.924;-2.388;2023-03-05T14:45:20;99220.22;;;7.20;75.55
43804;BME280;29430;52.924;-2.388;2023-03-05T14:50:18;99212.31;;;7.19;76.29
43804;BME280;29430;52.924;-2.388;2023-03-05T14:55:19;99200.25;;;7.21;74.78
43804;BME280;29430;52.924;-2.388;2023-03-05T15:00:18;99193.84;;;7.22;72.89
43804;BME280;29430;52.924;-2.388;2023-03-05T15:05:10;99181.41;;;7.28;68.99
43804;BME280;29430;52.924;-2.388;2023-03-05T15:10:03;99177.03;;;7.27;68.27
43804;BME280;29430;52.924;-2.388;2023-03-05T15:14:55;99174.09;;;7.35;68.28
43804;BME280;29430;52.924;-2.388;2023-03-05T15:19:48;99154.59;;;7.40;67.24
43804;BME280;29430;52.924;-2.388;2023-03-05T15:24:40;99152.53;;;7.42;66.98
43804;BME280;29430;52.924;-2.388;2023-03-05T15:29:32;99149.00;;;7.48;66.25
43804;BME280;29430;52.924;-2.388;2023-03-05T15:34:24;99143.94;;;7.58;66.91
43804;BME280;29430;52.924;-2.388;2023-03-05T15:39:16;99144.81;;;7.59;66.25
43804;BME280;29430;52.924;-2.388;2023-03-05T15:44:07;99135.44;;;7.61;66.51
43804;BME280;29430;52.924;-2.388;2023-03-05T15:48:59;99121.53;;;7.58;66.53
43804;BME280;29430;52.924;-2.388;2023-03-05T15:53:51;99114.31;;;7.51;67.18
43804;BME280;29430;52.924;-2.388;2023-03-05T15:58:44;99097.25;;;7.58;68.20
43804;BME280;29430;52.924;-2.388;2023-03-05T16:03:38;99097.84;;;7.66;66.63
43804;BME280;29430;52.924;-2.388;2023-03-05T16:08:32;99092.25;;;7.68;66.62
43804;BME280;29430;52.924;-2.388;2023-03-05T16:13:25;99076.03;;;7.68;67.04
43804;BME280;29430;52.924;-2.388;2023-03-05T16:18:19;99077.03;;;7.74;67.11
43804;BME280;29430;52.924;-2.388;2023-03-05T16:23:12;99078.72;;;7.75;66.90
43804;BME280;29430;52.924;-2.388;2023-03-05T16:28:04;99065.69;;;7.65;65.48
43804;BME280;29430;52.924;-2.388;2023-03-05T16:32:55;99061.16;;;7.52;66.53
43804;BME280;29430;52.924;-2.388;2023-03-05T16:37:47;99054.13;;;7.44;66.13
43804;BME280;29430;52.924;-2.388;2023-03-05T16:42:39;99049.84;;;7.30;66.01
43804;BME280;29430;52.924;-2.388;2023-03-05T16:47:31;99040.50;;;7.26;67.53
43804;BME280;29430;52.924;-2.388;2023-03-05T16:52:22;99040.09;;;7.22;68.73
43804;BME280;29430;52.924;-2.388;2023-03-05T16:57:14;99041.97;;;7.22;69.86
43804;BME280;29430;52.924;-2.388;2023-03-05T17:02:06;99040.75;;;7.17;69.85
43804;BME280;29430;52.924;-2.388;2023-03-05T17:06:58;99044.69;;;7.15;69.77
43804;BME280;29430;52.924;-2.388;2023-03-05T17:11:51;99049.69;;;7.11;69.62
43804;BME280;29430;52.924;-2.388;2023-03-05T17:16:43;99033.09;;;7.08;70.34
43804;BME280;29430;52.924;-2.388;2023-03-05T17:21:34;99026.47;;;7.04;70.74
43804;BME280;29430;52.924;-2.388;2023-03-05T17:26:26;99036.88;;;7.00;71.05
43804;BME280;29430;52.924;-2.388;2023-03-05T17:31:18;99031.88;;;6.97;71.17
43804;BME280;29430;52.924;-2.388;2023-03-05T17:36:28;99028.38;;;6.90;71.31
43804;BME280;29430;52.924;-2.388;2023-03-05T17:41:21;99022.16;;;6.82;71.71
43804;BME280;29430;52.924;-2.388;2023-03-05T17:46:14;99020.31;;;6.76;72.82
43804;BME280;29430;52.924;-2.388;2023-03-05T17:51:07;99020.31;;;6.70;73.27
43804;BME280;29430;52.924;-2.388;2023-03-05T17:56:00;99010.56;;;6.69;74.33
43804;BME280;29430;52.924;-2.388;2023-03-05T18:00:52;99006.66;;;6.65;74.26
43804;BME280;29430;52.924;-2.388;2023-03-05T18:05:44;99000.84;;;6.61;74.89
43804;BME280;29430;52.924;-2.388;2023-03-05T18:10:35;98997.75;;;6.57;75.34
43804;BME280;29430;52.924;-2.388;2023-03-05T18:15:28;98993.19;;;6.51;76.31
43804;BME280;29430;52.924;-2.388;2023-03-05T18:25:14;98996.31;;;6.41;76.72
43804;BME280;29430;52.924;-2.388;2023-03-05T18:30:06;98994.88;;;6.39;77.30
43804;BME280;29430;52.924;-2.388;2023-03-05T18:34:58;98997.97;;;6.36;77.83
43804;BME280;29430;52.924;-2.388;2023-03-05T18:39:50;98992.81;;;6.34;78.37
43804;BME280;29430;52.924;-2.388;2023-03-05T18:44:42;98986.16;;;6.30;77.35
43804;BME280;29430;52.924;-2.388;2023-03-05T18:49:33;98980.59;;;6.25;77.54
43804;BME280;29430;52.924;-2.388;2023-03-05T18:54:25;98981.41;;;6.19;77.70
43804;BME280;29430;52.924;-2.388;2023-03-05T18:59:17;98971.88;;;6.09;77.57
43804;BME280;29430;52.924;-2.388;2023-03-05T19:04:09;98971.91;;;6.03;78.32
43804;BME280;29430;52.924;-2.388;2023-03-05T19:09:01;98965.06;;;6.00;78.73
43804;BME280;29430;52.924;-2.388;2023-03-05T19:13:59;98958.22;;;5.98;78.72
43804;BME280;29430;52.924;-2.388;2023-03-05T19:24:07;98954.50;;;5.99;79.63
43804;BME280;29430;52.924;-2.388;2023-03-05T19:28:58;98950.13;;;5.98;79.81
43804;BME280;29430;52.924;-2.388;2023-03-05T19:33:50;98954.88;;;5.96;80.94
43804;BME280;29430;52.924;-2.388;2023-03-05T19:38:42;98949.69;;;5.94;80.89
43804;BME280;29430;52.924;-2.388;2023-03-05T19:43:33;98954.50;;;5.99;81.94
43804;BME280;29430;52.924;-2.388;2023-03-05T19:48:26;98945.38;;;6.00;82.36
43804;BME280;29430;52.924;-2.388;2023-03-05T19:53:18;98949.72;;;6.01;82.39
43804;BME280;29430;52.924;-2.388;2023-03-05T19:58:09;98943.72;;;5.99;82.48
43804;BME280;29430;52.924;-2.388;2023-03-05T20:03:01;98936.47;;;5.99;83.20
43804;BME280;29430;52.924;-2.388;2023-03-05T20:07:53;98938.75;;;6.02;83.36
43804;BME280;29430;52.924;-2.388;2023-03-05T20:12:44;98942.69;;;6.06;84.19
43804;BME280;29430;52.924;-2.388;2023-03-05T20:17:38;98935.44;;;6.07;85.04
43804;BME280;29430;52.924;-2.388;2023-03-05T20:22:30;98932.75;;;6.07;86.28
43804;BME280;29430;52.924;-2.388;2023-03-05T20:27:22;98917.22;;;6.02;86.72
43804;BME280;29430;52.924;-2.388;2023-03-05T20:32:13;98919.69;;;5.97;86.82
43804;BME280;29430;52.924;-2.388;2023-03-05T20:37:05;98906.84;;;5.92;87.11
43804;BME280;29430;52.924;-2.388;2023-03-05T20:41:57;98899.59;;;5.93;87.67
43804;BME280;29430;52.924;-2.388;2023-03-05T20:46:50;98903.72;;;5.96;87.53
43804;BME280;29430;52.924;-2.388;2023-03-05T20:51:53;98897.34;;;5.97;87.52
43804;BME280;29430;52.924;-2.388;2023-03-05T20:56:44;98895.47;;;5.97;88.13
43804;BME280;29430;52.924;-2.388;2023-03-05T21:01:38;98886.97;;;5.94;88.32
43804;BME280;29430;52.924;-2.388;2023-03-05T21:06:31;98879.09;;;5.92;88.82
43804;BME280;29430;52.924;-2.388;2023-03-05T21:11:23;98877.22;;;5.92;89.32
43804;BME280;29430;52.924;-2.388;2023-03-05T21:16:20;98876.84;;;5.89;89.96
43804;BME280;29430;52.924;-2.388;2023-03-05T21:21:13;98874.13;;;5.82;90.00
43804;BME280;29430;52.924;-2.388;2023-03-05T21:26:05;98871.66;;;5.74;91.27
43804;BME280;29430;52.924;-2.388;2023-03-05T21:30:57;98865.88;;;5.70;91.32
43804;BME280;29430;52.924;-2.388;2023-03-05T21:35:50;98857.16;;;5.68;91.61
43804;BME280;29430;52.924;-2.388;2023-03-05T21:40:45;98853.84;;;5.66;92.16
43804;BME280;29430;52.924;-2.388;2023-03-05T21:45:39;98847.25;;;5.69;92.77
43804;BME280;29430;52.924;-2.388;2023-03-05T21:50:32;98844.13;;;5.65;92.55
43804;BME280;29430;52.924;-2.388;2023-03-05T21:55:24;98840.41;;;5.66;93.39
43804;BME280;29430;52.924;-2.388;2023-03-05T22:00:23;98843.50;;;5.70;93.79
43804;BME280;29430;52.924;-2.388;2023-03-05T22:05:16;98834.41;;;5.71;93.78
43804;BME280;29430;52.924;-2.388;2023-03-05T22:10:14;98826.53;;;5.69;93.69
43804;BME280;29430;52.924;-2.388;2023-03-05T22:15:07;98824.47;;;5.71;94.13
43804;BME280;29430;52.924;-2.388;2023-03-05T22:19:58;98827.16;;;5.71;93.50
43804;BME280;29430;52.924;-2.388;2023-03-05T22:24:50;98814.53;;;5.72;93.22
43804;BME280;29430;52.924;-2.388;2023-03-05T22:29:42;98799.63;;;5.69;93.63
43804;BME280;29430;52.924;-2.388;2023-03-05T22:34:33;98809.78;;;5.67;93.35
43804;BME280;29430;52.924;-2.388;2023-03-05T22:39:25;98803.38;;;5.62;93.02
43804;BME280;29430;52.924;-2.388;2023-03-05T22:44:17;98797.97;;;5.62;93.53
43804;BME280;29430;52.924;-2.388;2023-03-05T22:49:09;98796.34;;;5.67;93.22
43804;BME280;29430;52.924;-2.388;2023-03-05T22:54:01;98788.03;;;5.62;93.12
43804;BME280;29430;52.924;-2.388;2023-03-05T22:58:52;98781.25;;;5.60;93.35
43804;BME280;29430;52.924;-2.388;2023-03-05T23:03:44;98774.41;;;5.57;93.83
43804;BME280;29430;52.924;-2.388;2023-03-05T23:08:37;98764.88;;;5.54;94.26
43804;BME280;29430;52.924;-2.388;2023-03-05T23:13:29;98759.72;;;5.53;94.54
43804;BME280;29430;52.924;-2.388;2023-03-05T23:18:20;98757.00;;;5.53;93.99
43804;BME280;29430;52.924;-2.388;2023-03-05T23:23:12;98742.97;;;5.51;94.77
43804;BME280;29430;52.924;-2.388;2023-03-05T23:28:04;98741.09;;;5.45;95.31
43804;BME280;29430;52.924;-2.388;2023-03-05T23:32:59;98734.69;;;5.46;95.17
43804;BME280;29430;52.924;-2.388;2023-03-05T23:37:53;98729.94;;;5.48;94.93
43804;BME280;29430;52.924;-2.388;2023-03-05T23:42:46;98719.81;;;5.43;95.29
43804;BME280;29430;52.924;-2.388;2023-03-05T23:47:38;98703.28;;;5.40;95.67
43804;BME280;29430;52.924;-2.388;2023-03-05T23:52:29;98697.47;;;5.36;95.91
43804;BME280;29430;52.924;-2.388;2023-03-05T23:57:21;98698.75;;;5.27;96.15
